Time;durP1;ratioP1;P1;durP2;ratioP2;P2;SDS_P1;SDS_P2;PMS_P1;PMS_P2;Temp;Humidity;BMP_temperature;BMP_pressure;BME280_temperature;BME280_humidity;BME280_pressure;Samples;Min_cycle;Max_cycle;Signal;HPM_P1;HPM_P2
2023/01/29 00:01:30;;;;;;;13.95;8.80;;;-0.70;76.70;;;;;;5073446;28;20070;-62
2023/01/29 00:03:56;;;;;;;12.38;8.15;;;-0.70;76.60;;;;;;5069625;28;20044;-61
2023/01/29 00:06:22;;;;;;;10.98;8.15;;;-0.70;76.70;;;;;;5072402;28;20032;-62
2023/01/29 00:08:48;;;;;;;13.52;8.60;;;-0.70;76.70;;;;;;5076202;28;20486;-62
2023/01/29 00:11:15;;;;;;;14.65;8.98;;;-0.60;76.60;;;;;;5076861;28;20050;-62
2023/01/29 00:13:41;;;;;;;12.68;9.43;;;-0.60;76.70;;;;;;5073498;28;20467;-61
2023/01/29 00:16:07;;;;;;;12.15;8.55;;;-0.60;76.70;;;;;;5069898;28;20542;-61
2023/01/29 00:18:37;;;;;;;13.70;8.57;;;-0.60;76.70;;;;;;5067900;28;20040;-62
2023/01/29 00:21:07;;;;;;;12.18;8.50;;;-0.60;76.80;;;;;;5069912;28;20037;-62
2023/01/29 00:23:32;;;;;;;11.48;8.35;;;-0.60;76.90;;;;;;5069601;28;20529;-62
2023/01/29 00:26:01;;;;;;;12.10;8.90;;;-0.60;76.90;;;;;;5072306;28;20107;-62
2023/01/29 00:28:26;;;;;;;12.77;9.02;;;-0.60;76.90;;;;;;5070127;28;20029;-61
2023/01/29 00:30:52;;;;;;;14.75;9.15;;;-0.60;76.80;;;;;;5068963;28;20051;-62
2023/01/29 00:33:18;;;;;;;12.95;8.90;;;-0.60;76.80;;;;;;5069213;28;20036;-61
2023/01/29 00:35:44;;;;;;;12.30;8.60;;;-0.60;76.70;;;;;;5072826;28;20028;-62
2023/01/29 00:38:10;;;;;;;13.55;9.70;;;-0.60;76.80;;;;;;5075662;28;20112;-62
2023/01/29 00:46:08;;;;;;;12.40;8.40;;;-0.60;76.90;;;;;;5073638;28;20047;-62
2023/01/29 00:48:34;;;;;;;13.45;9.30;;;-0.50;76.70;;;;;;5072527;28;20526;-61
2023/01/29 00:51:02;;;;;;;10.75;8.18;;;-0.60;76.80;;;;;;5073429;28;20052;-62
2023/01/29 00:53:28;;;;;;;15.05;10.15;;;-0.60;76.80;;;;;;5073368;28;20039;-62
2023/01/29 00:55:54;;;;;;;11.27;8.40;;;-0.60;76.90;;;;;;5073977;28;20501;-62
2023/01/29 00:58:21;;;;;;;11.73;8.13;;;-0.60;76.90;;;;;;5084384;28;20024;-61
2023/01/29 01:00:50;;;;;;;13.98;9.55;;;-0.60;76.80;;;;;;5073499;28;20029;-59
2023/01/29 01:03:16;;;;;;;14.75;9.52;;;-0.60;77.00;;;;;;5077560;28;20371;-59
2023/01/29 01:05:42;;;;;;;12.93;9.45;;;-0.60;77.10;;;;;;5074956;28;20033;-60
2023/01/29 01:11:02;;;;;;;12.82;8.73;;;-0.60;77.00;;;;;;5067016;28;20675;-60
2023/01/29 01:13:30;;;;;;;13.80;9.15;;;-0.60;77.00;;;;;;5073400;28;20036;-59
2023/01/29 01:15:56;;;;;;;13.65;9.68;;;-0.60;77.00;;;;;;5101889;22;20056;-91
2023/01/29 01:18:21;;;;;;;13.70;9.85;;;-0.60;76.80;;;;;;5083798;28;20052;-88
2023/01/29 01:20:50;;;;;;;16.80;9.13;;;-0.60;76.60;;;;;;5079943;28;20028;-89
2023/01/29 01:23:19;;;;;;;15.55;9.90;;;-0.60;76.80;;;;;;5076454;28;20036;-89
2023/01/29 01:25:45;;;;;;;12.30;8.23;;;-0.60;77.40;;;;;;5070777;28;20036;-87
2023/01/29 01:28:11;;;;;;;14.27;9.05;;;-0.60;76.60;;;;;;5067010;28;20024;-88
2023/01/29 01:30:37;;;;;;;13.60;8.90;;;-0.50;76.70;;;;;;5074036;28;20032;-83
2023/01/29 01:33:02;;;;;;;12.82;8.50;;;-0.50;76.80;;;;;;5069488;28;20037;-83
2023/01/29 01:35:28;;;;;;;12.38;9.52;;;-0.50;76.60;;;;;;5058776;28;20491;-87
2023/01/29 01:37:54;;;;;;;14.20;9.57;;;-0.60;76.50;;;;;;5063798;28;20044;-89
2023/01/29 01:40:22;;;;;;;12.65;8.95;;;-0.60;76.50;;;;;;5080077;28;20135;-89
2023/01/29 01:42:49;;;;;;;14.43;9.60;;;-0.60;76.40;;;;;;5073620;28;20107;-88
2023/01/29 01:45:19;;;;;;;14.90;10.18;;;-0.60;76.50;;;;;;5058456;28;20036;-88
2023/01/29 01:47:53;;;;;;;14.25;10.27;;;-0.60;76.90;;;;;;5059834;28;20029;-88
2023/01/29 01:50:37;;;;;;;15.30;9.63;;;-0.60;77.00;;;;;;5063476;28;20475;-89
2023/01/29 01:53:14;;;;;;;14.45;9.30;;;-0.60;77.00;;;;;;5069638;28;20028;-84
2023/01/29 01:55:47;;;;;;;13.73;9.38;;;-0.60;77.10;;;;;;5060068;28;20024;-87
2023/01/29 01:58:21;;;;;;;11.95;8.70;;;-0.60;77.10;;;;;;5066661;28;20165;-87
2023/01/29 02:00:47;;;;;;;13.15;9.25;;;-0.60;77.10;;;;;;5085450;28;20086;-87
2023/01/29 02:11:38;;;;;;;14.98;9.48;;;-0.50;77.30;;;;;;5064561;28;20085;-88
2023/01/29 02:14:04;;;;;;;11.80;8.55;;;-0.50;77.30;;;;;;5070561;28;20036;-88
2023/01/29 02:16:30;;;;;;;15.20;10.00;;;-0.50;77.80;;;;;;5067450;28;20497;-84
2023/01/29 02:18:56;;;;;;;14.35;9.48;;;-0.50;77.20;;;;;;5063319;28;20032;-84
2023/01/29 02:21:43;;;;;;;11.77;8.50;;;-0.50;77.30;;;;;;5064944;28;20395;-84
2023/01/29 02:24:27;;;;;;;13.15;8.88;;;-0.50;77.10;;;;;;5070017;28;20044;-83
2023/01/29 02:27:05;;;;;;;14.40;9.48;;;-0.50;77.10;;;;;;5066689;28;20032;-84
2023/01/29 02:29:57;;;;;;;12.48;9.10;;;-0.60;77.20;;;;;;5057078;28;20122;-83
2023/01/29 02:32:32;;;;;;;;;;;-0.60;77.10;;;;;;5063515;28;20545;-89
2023/01/29 02:35:33;;;;;;;10.95;8.90;;;-0.70;76.80;;;;;;5069405;28;20027;-88
2023/01/29 02:38:21;;;;;;;11.23;7.88;;;-0.60;77.10;;;;;;5078609;28;20036;-88
2023/01/29 02:40:58;;;;;;;9.95;8.13;;;-0.60;77.00;;;;;;5087331;28;20024;-87
2023/01/29 02:43:45;;;;;;;12.05;7.80;;;-0.60;77.10;;;;;;5069342;28;20471;-86
2023/01/29 02:46:25;;;;;;;12.35;8.48;;;-0.50;77.00;;;;;;5057501;28;20108;-83
2023/01/29 02:49:16;;;;;;;11.57;8.32;;;-0.50;77.10;;;;;;5052115;28;20356;-84
2023/01/29 02:51:50;;;;;;;11.85;8.43;;;-0.40;77.00;;;;;;5056708;28;20028;-88
2023/01/29 02:54:19;;;;;;;11.68;8.07;;;-0.50;76.90;;;;;;5059189;28;20037;-87
2023/01/29 02:56:59;;;;;;;10.98;7.70;;;-0.40;76.70;;;;;;5085229;28;20096;-88
2023/01/29 02:59:36;;;;;;;11.40;7.53;;;-0.40;76.60;;;;;;5064651;28;20063;-88
2023/01/29 03:02:08;;;;;;;14.32;9.02;;;-0.40;76.50;;;;;;5067842;28;20120;-87
2023/01/29 03:04:35;;;;;;;;;;;-0.40;76.50;;;;;;5067428;28;20075;-88
2023/01/29 03:07:08;;;;;;;11.88;8.18;;;-0.40;76.40;;;;;;5063311;28;19909;-88
2023/01/29 03:09:44;;;;;;;11.30;8.32;;;-0.40;76.40;;;;;;5061881;28;20407;-88
2023/01/29 03:12:32;;;;;;;9.38;7.20;;;-0.40;76.40;;;;;;5059076;28;20063;-87
2023/01/29 03:15:13;;;;;;;10.77;8.20;;;-0.40;76.30;;;;;;5062419;28;20530;-87
2023/01/29 03:17:50;;;;;;;12.00;7.55;;;-0.30;76.20;;;;;;5058656;28;20053;-84
2023/01/29 03:20:20;;;;;;;10.85;8.23;;;-0.30;76.90;;;;;;5066879;28;20036;-83
2023/01/29 03:22:57;;;;;;;9.98;7.57;;;-0.30;76.40;;;;;;5063982;28;20467;-90
2023/01/29 03:33:59;;;;;;;11.02;8.57;;;-0.20;76.00;;;;;;5062478;28;20039;-85
2023/01/29 03:36:44;;;;;;;11.35;7.75;;;-0.20;75.80;;;;;;5058095;28;20131;-85
2023/01/29 03:39:11;;;;;;;11.20;7.72;;;-0.20;75.80;;;;;;5069721;28;20039;-84
2023/01/29 03:41:52;;;;;;;10.23;7.75;;;-0.20;75.60;;;;;;5058082;28;20028;-85
2023/01/29 03:45:07;;;;;;;8.80;7.22;;;-0.20;75.70;;;;;;5068711;28;20127;-85
2023/01/29 03:47:55;;;;;;;10.18;7.47;;;-0.20;75.80;;;;;;5044261;28;20274;-85
2023/01/29 03:50:51;;;;;;;10.77;7.43;;;-0.20;75.90;;;;;;5058403;28;20471;-85
2023/01/29 03:53:28;;;;;;;9.63;7.53;;;-0.10;75.90;;;;;;5062255;28;20055;-90
2023/01/29 03:56:06;;;;;;;11.75;7.75;;;-0.10;75.90;;;;;;5074175;28;20024;-88
2023/01/29 03:58:57;;;;;;;8.63;7.25;;;-0.10;75.70;;;;;;5061774;28;20028;-88
2023/01/29 04:01:29;;;;;;;10.97;7.87;;;0.00;75.70;;;;;;5064231;28;20112;-89
2023/01/29 04:04:16;;;;;;;11.23;7.95;;;0.00;75.70;;;;;;5054381;28;20044;-89
2023/01/29 04:06:46;;;;;;;9.65;7.07;;;0.00;75.50;;;;;;5051950;28;20099;-89
2023/01/29 04:09:22;;;;;;;10.15;7.20;;;0.00;75.40;;;;;;5052127;28;20060;-89
2023/01/29 04:12:09;;;;;;;10.38;7.95;;;0.10;75.50;;;;;;5077803;28;20038;-90
2023/01/29 04:14:36;;;;;;;10.05;7.05;;;0.10;75.40;;;;;;5059739;28;20040;-90
2023/01/29 04:17:15;;;;;;;10.90;7.60;;;0.10;75.90;;;;;;5061588;28;20057;-90
2023/01/29 04:19:41;;;;;;;10.27;7.30;;;0.10;74.90;;;;;;5069893;28;20459;-90
2023/01/29 04:22:12;;;;;;;10.55;7.80;;;0.10;75.50;;;;;;5061317;28;20028;-89
2023/01/29 04:24:39;;;;;;;10.48;7.72;;;0.10;75.00;;;;;;5048572;28;20080;-89
2023/01/29 04:27:19;;;;;;;9.88;7.20;;;0.10;75.00;;;;;;5061114;28;20028;-88
2023/01/29 04:30:22;;;;;;;11.27;8.10;;;0.10;75.20;;;;;;5077908;28;20037;-89
2023/01/29 04:33:04;;;;;;;10.13;7.35;;;0.10;74.70;;;;;;5029672;28;20033;-88
2023/01/29 04:35:38;;;;;;;;;;;0.10;74.80;;;;;;5071746;28;20036;-89
2023/01/29 04:38:15;;;;;;;10.45;6.97;;;0.00;74.40;;;;;;5079762;28;19924;-90
2023/01/29 04:41:04;;;;;;;10.43;6.95;;;0.00;74.90;;;;;;5080227;28;20029;-89
2023/01/29 04:43:41;;;;;;;9.50;6.93;;;0.00;74.70;;;;;;5067678;28;20063;-89
2023/01/29 04:46:18;;;;;;;13.60;7.60;;;0.10;74.80;;;;;;5077805;28;20032;-85
2023/01/29 04:49:11;;;;;;;11.43;7.05;;;0.10;74.70;;;;;;5065422;28;20538;-84
2023/01/29 04:52:04;;;;;;;8.90;6.43;;;0.10;74.50;;;;;;5060055;28;20472;-89
2023/01/29 04:54:38;;;;;;;9.18;6.70;;;0.10;74.50;;;;;;5054746;28;20033;-89
2023/01/29 04:57:11;;;;;;;9.70;6.95;;;0.10;74.60;;;;;;5069226;28;20044;-88
2023/01/29 04:59:55;;;;;;;10.93;7.53;;;0.10;74.40;;;;;;5067180;28;20029;-89
2023/01/29 05:02:23;;;;;;;9.40;6.75;;;0.10;74.40;;;;;;5067948;28;20029;-85
2023/01/29 05:04:49;;;;;;;9.50;7.25;;;0.10;74.80;;;;;;5058179;28;20037;-85
2023/01/29 05:07:17;;;;;;;9.48;7.40;;;0.10;75.20;;;;;;5066647;28;20028;-90
2023/01/29 05:09:45;;;;;;;9.43;6.38;;;0.10;74.60;;;;;;5083932;28;20029;-90
2023/01/29 05:12:14;;;;;;;10.32;7.07;;;0.10;74.70;;;;;;5058074;28;20025;-89
2023/01/29 05:14:44;;;;;;;8.48;6.45;;;0.20;74.60;;;;;;5049982;28;20181;-88
2023/01/29 05:17:14;;;;;;;10.07;7.38;;;0.20;74.60;;;;;;5063298;28;20048;-88
2023/01/29 05:19:40;;;;;;;10.10;7.70;;;0.20;74.60;;;;;;5061878;28;20060;-88
2023/01/29 05:22:09;;;;;;;10.07;7.10;;;0.20;74.50;;;;;;5066552;28;20325;-88
2023/01/29 05:24:36;;;;;;;10.15;7.15;;;0.20;74.40;;;;;;5067076;28;20170;-88
2023/01/29 05:29:47;;;;;;;10.85;7.40;;;0.20;74.60;;;;;;5060545;28;20051;-88
2023/01/29 05:32:14;;;;;;;10.05;7.18;;;0.20;74.60;;;;;;5064918;28;20024;-88
2023/01/29 05:34:40;;;;;;;10.45;7.90;;;0.20;74.50;;;;;;5063204;28;20033;-87
2023/01/29 05:37:06;;;;;;;9.48;7.07;;;0.20;74.40;;;;;;5058396;28;20493;-85
2023/01/29 05:39:31;;;;;;;9.80;7.13;;;0.20;74.40;;;;;;5067392;28;20029;-85
2023/01/29 05:41:58;;;;;;;10.15;6.82;;;0.20;74.60;;;;;;5060161;28;20038;-90
2023/01/29 05:44:23;;;;;;;9.80;6.95;;;0.20;74.60;;;;;;5059365;28;20124;-91
2023/01/29 05:46:50;;;;;;;9.68;6.85;;;0.20;74.80;;;;;;5074775;28;20493;-90
2023/01/29 05:49:17;;;;;;;9.68;7.40;;;0.20;74.80;;;;;;5064432;28;20037;-90
2023/01/29 05:51:43;;;;;;;10.15;7.00;;;0.20;74.80;;;;;;5071999;28;20075;-89
2023/01/29 05:54:11;;;;;;;10.43;6.90;;;0.20;74.90;;;;;;5075216;28;20033;-90
2023/01/29 05:56:38;;;;;;;9.95;7.20;;;0.20;75.00;;;;;;5062270;28;20029;-88
2023/01/29 05:59:03;;;;;;;9.40;7.32;;;0.20;75.10;;;;;;5061117;28;20060;-88
2023/01/29 06:01:29;;;;;;;9.43;7.00;;;0.20;75.30;;;;;;5073973;28;20048;-89
2023/01/29 06:03:55;;;;;;;9.45;7.13;;;0.20;75.20;;;;;;5055444;28;20041;-89
2023/01/29 06:06:20;;;;;;;9.38;7.25;;;0.30;75.20;;;;;;5062630;28;20096;-90
2023/01/29 06:08:46;;;;;;;11.43;7.95;;;0.30;75.20;;;;;;5066932;28;20030;-89
2023/01/29 06:11:13;;;;;;;9.80;7.50;;;0.30;75.20;;;;;;5066049;28;20513;-90
2023/01/29 06:13:39;;;;;;;12.02;7.50;;;0.30;75.30;;;;;;5064197;28;20037;-91
2023/01/29 06:16:06;;;;;;;10.60;7.45;;;0.30;75.40;;;;;;5053756;28;20397;-85
2023/01/29 06:18:32;;;;;;;10.25;7.60;;;0.30;75.40;;;;;;5052773;28;20426;-85
2023/01/29 06:21:03;;;;;;;10.45;7.30;;;0.30;75.50;;;;;;5066216;28;20127;-89
2023/01/29 06:23:29;;;;;;;9.93;7.68;;;0.30;75.50;;;;;;5072542;28;20036;-89
2023/01/29 06:26:02;;;;;;;10.05;7.40;;;0.30;75.40;;;;;;5052993;28;20036;-85
2023/01/29 06:28:29;;;;;;;10.15;7.50;;;0.30;75.40;;;;;;5051076;28;20064;-85
2023/01/29 06:30:59;;;;;;;9.30;7.72;;;0.30;75.50;;;;;;5069790;28;20378;-88
2023/01/29 06:33:25;;;;;;;10.27;7.78;;;0.40;75.70;;;;;;5064907;28;20098;-89
2023/01/29 06:36:03;;;;;;;11.32;7.40;;;0.40;75.70;;;;;;5052809;28;20031;-91
2023/01/29 06:38:28;;;;;;;10.10;7.25;;;0.40;75.50;;;;;;5053032;28;20041;-90
2023/01/29 06:40:54;;;;;;;9.98;7.43;;;0.40;75.50;;;;;;5052295;28;20039;-89
2023/01/29 06:43:21;;;;;;;10.40;6.90;;;0.40;75.60;;;;;;5060595;28;20041;-89
2023/01/29 06:45:56;;;;;;;12.35;7.50;;;0.40;75.50;;;;;;5066824;28;20028;-89
2023/01/29 06:48:23;;;;;;;11.93;7.60;;;0.40;75.50;;;;;;5053644;28;20077;-89
2023/01/29 06:50:49;;;;;;;12.80;8.18;;;0.40;75.60;;;;;;5055775;28;20033;-91
2023/01/29 06:53:17;;;;;;;9.25;6.88;;;0.40;75.60;;;;;;5074367;28;20116;-90
2023/01/29 06:55:49;;;;;;;9.45;7.20;;;0.50;75.30;;;;;;5061681;28;20061;-90
2023/01/29 06:58:15;;;;;;;10.50;7.55;;;0.50;75.10;;;;;;5053896;28;20033;-90
2023/01/29 07:00:41;;;;;;;12.15;8.45;;;0.50;75.10;;;;;;5061280;28;20123;-91
2023/01/29 07:03:08;;;;;;;9.90;6.78;;;0.50;75.00;;;;;;5070673;28;20051;-91
2023/01/29 07:05:34;;;;;;;10.35;7.25;;;0.50;75.00;;;;;;5066187;28;20395;-89
2023/01/29 07:08:00;;;;;;;9.50;7.05;;;0.60;74.90;;;;;;5066561;28;20029;-90
2023/01/29 07:10:25;;;;;;;16.08;11.55;;;0.60;74.60;;;;;;5062487;28;20492;-90
2023/01/29 07:12:51;;;;;;;10.35;8.05;;;0.60;74.70;;;;;;5059840;28;20040;-90
2023/01/29 07:15:19;;;;;;;9.95;7.65;;;0.60;74.70;;;;;;5065660;28;20123;-90
2023/01/29 07:17:59;;;;;;;8.95;6.88;;;0.70;75.30;;;;;;5062377;28;20052;-86
2023/01/29 07:20:29;;;;;;;10.55;7.53;;;0.70;74.40;;;;;;5060890;28;20032;-85
2023/01/29 07:22:56;;;;;;;9.77;7.32;;;0.70;74.30;;;;;;5059546;28;20041;-85
2023/01/29 07:25:23;;;;;;;8.32;6.35;;;0.70;74.30;;;;;;5054852;28;20053;-85
2023/01/29 07:27:49;;;;;;;8.35;6.68;;;0.70;74.20;;;;;;5057803;28;20035;-85
2023/01/29 07:30:15;;;;;;;10.15;6.95;;;0.70;73.90;;;;;;5055894;28;20033;-85
2023/01/29 07:32:41;;;;;;;9.50;7.25;;;0.70;73.90;;;;;;5064915;28;20072;-90
2023/01/29 07:35:08;;;;;;;8.30;7.07;;;0.80;73.80;;;;;;5059537;28;20029;-90
2023/01/29 07:37:33;;;;;;;10.52;7.63;;;0.70;73.90;;;;;;5073189;28;20020;-88
2023/01/29 07:39:59;;;;;;;9.38;6.53;;;0.80;73.90;;;;;;5072794;28;20028;-90
2023/01/29 07:42:25;;;;;;;9.80;7.00;;;0.70;73.70;;;;;;5080422;28;20036;-85
2023/01/29 07:44:50;;;;;;;9.18;7.10;;;0.70;73.70;;;;;;5057552;28;20530;-85
2023/01/29 07:47:16;;;;;;;8.20;6.68;;;0.80;73.90;;;;;;5065640;28;20032;-89
2023/01/29 07:49:41;;;;;;;10.13;7.28;;;0.80;73.90;;;;;;5068221;28;20121;-89
2023/01/29 07:52:07;;;;;;;10.30;7.45;;;0.80;73.90;;;;;;5064320;28;20028;-90
2023/01/29 07:54:33;;;;;;;9.73;7.05;;;0.80;73.80;;;;;;5060626;28;20040;-89
2023/01/29 07:56:58;;;;;;;8.48;6.57;;;0.80;73.80;;;;;;5054547;28;20042;-85
2023/01/29 07:59:24;;;;;;;10.63;7.53;;;0.90;74.00;;;;;;5059593;28;20082;-85
2023/01/29 08:01:50;;;;;;;10.60;7.35;;;0.90;73.80;;;;;;5064682;28;20024;-85
2023/01/29 08:04:15;;;;;;;9.45;6.90;;;0.90;73.60;;;;;;5055623;28;20057;-85
2023/01/29 08:06:42;;;;;;;8.82;6.68;;;0.90;73.40;;;;;;5081517;28;20106;-83
2023/01/29 08:09:09;;;;;;;9.10;7.03;;;0.90;73.20;;;;;;5067883;28;20036;-83
2023/01/29 08:11:35;;;;;;;9.52;6.45;;;0.90;73.20;;;;;;5063241;28;20035;-85
2023/01/29 08:14:01;;;;;;;8.30;6.55;;;0.90;72.90;;;;;;5077693;28;20036;-83
2023/01/29 08:16:26;;;;;;;9.60;6.68;;;0.90;73.30;;;;;;5056750;28;20021;-85
2023/01/29 08:18:52;;;;;;;9.25;6.50;;;1.00;73.00;;;;;;5065579;28;20044;-84
2023/01/29 08:21:18;;;;;;;8.32;6.40;;;1.00;72.90;;;;;;5064287;28;20115;-85
2023/01/29 08:23:46;;;;;;;10.02;6.47;;;1.00;72.90;;;;;;5063027;28;20037;-84
2023/01/29 08:26:12;;;;;;;8.27;6.85;;;1.10;72.50;;;;;;5063363;28;20085;-85
2023/01/29 08:28:37;;;;;;;8.82;6.50;;;1.10;72.50;;;;;;5068049;28;20037;-85
2023/01/29 08:31:04;;;;;;;9.00;7.22;;;1.10;72.50;;;;;;5063170;28;20539;-85
2023/01/29 08:33:29;;;;;;;8.68;6.20;;;1.10;72.40;;;;;;5054838;28;20738;-84
2023/01/29 08:35:56;;;;;;;8.35;6.53;;;1.10;72.00;;;;;;5058141;28;20028;-83
2023/01/29 08:38:21;;;;;;;9.10;6.50;;;1.00;71.80;;;;;;5062546;28;20114;-85
2023/01/29 08:40:47;;;;;;;9.38;6.40;;;1.00;72.00;;;;;;5058381;28;20463;-85
2023/01/29 08:43:13;;;;;;;7.90;6.53;;;1.00;72.20;;;;;;5062654;28;20037;-84
2023/01/29 08:45:43;;;;;;;8.07;6.50;;;1.00;72.00;;;;;;5067898;28;20125;-85
2023/01/29 08:48:09;;;;;;;10.15;6.80;;;1.00;71.70;;;;;;5060464;28;20681;-85
2023/01/29 08:50:36;;;;;;;8.88;6.50;;;1.00;71.80;;;;;;5064120;28;20032;-85
2023/01/29 08:53:07;;;;;;;8.40;6.95;;;1.00;71.80;;;;;;5063228;28;20074;-84
2023/01/29 08:55:36;;;;;;;7.95;6.57;;;1.00;71.90;;;;;;5084080;28;20087;-85
2023/01/29 08:58:04;;;;;;;7.68;5.90;;;1.00;72.10;;;;;;5070198;28;20430;-85
2023/01/29 09:00:30;;;;;;;8.20;6.20;;;1.00;71.80;;;;;;5061040;28;20389;-84
2023/01/29 09:02:58;;;;;;;9.55;6.55;;;1.10;72.00;;;;;;5066736;28;20020;-85
2023/01/29 09:05:24;;;;;;;9.60;7.05;;;1.10;72.30;;;;;;5060297;28;20029;-83
2023/01/29 09:07:50;;;;;;;8.35;6.30;;;1.10;72.20;;;;;;5064841;28;20197;-83
2023/01/29 09:10:16;;;;;;;9.32;6.63;;;1.10;72.50;;;;;;5057685;28;20029;-84
2023/01/29 09:12:41;;;;;;;8.77;6.78;;;1.20;72.60;;;;;;5084532;28;20494;-84
2023/01/29 09:15:08;;;;;;;8.57;6.50;;;1.30;72.60;;;;;;5064088;28;20383;-84
2023/01/29 09:17:33;;;;;;;8.75;6.72;;;1.30;73.10;;;;;;5066047;28;20084;-84
2023/01/29 09:19:59;;;;;;;8.60;6.15;;;1.40;72.30;;;;;;5062951;28;20060;-84
2023/01/29 09:22:25;;;;;;;8.75;7.07;;;1.40;72.20;;;;;;5069185;28;20367;-88
2023/01/29 09:24:50;;;;;;;8.05;6.78;;;1.40;72.20;;;;;;5072791;28;20087;-89
2023/01/29 09:27:16;;;;;;;8.38;6.63;;;1.40;72.10;;;;;;5062574;28;20067;-88
2023/01/29 09:29:42;;;;;;;8.73;6.40;;;1.40;72.20;;;;;;5065420;28;20047;-88
2023/01/29 09:32:07;;;;;;;8.93;6.75;;;1.50;72.10;;;;;;5060154;28;20082;-85
2023/01/29 09:34:34;;;;;;;8.98;6.47;;;1.50;71.90;;;;;;5060222;28;20037;-84
2023/01/29 09:36:59;;;;;;;9.05;6.90;;;1.50;72.00;;;;;;5066505;28;20033;-88
2023/01/29 09:39:25;;;;;;;9.23;6.57;;;1.50;71.60;;;;;;5060470;28;20036;-89
2023/01/29 09:42:12;;;;;;;8.05;6.10;;;1.50;71.30;;;;;;5062258;28;20391;-87
2023/01/29 09:45:11;;;;;;;8.88;6.65;;;1.60;71.40;;;;;;5065826;28;20035;-87
2023/01/29 09:47:37;;;;;;;8.98;6.50;;;1.60;71.40;;;;;;5054048;28;20040;-89
2023/01/29 09:50:11;;;;;;;7.72;5.80;;;1.60;71.10;;;;;;5070052;28;20033;-90
2023/01/29 09:52:49;;;;;;;8.15;5.85;;;1.60;71.00;;;;;;5057611;28;20064;-88
2023/01/29 09:55:22;;;;;;;7.80;6.18;;;1.60;71.00;;;;;;5062702;28;20028;-89
2023/01/29 09:57:52;;;;;;;8.77;6.25;;;1.60;71.00;;;;;;5061652;28;20029;-89
2023/01/29 10:00:33;;;;;;;9.55;6.55;;;1.70;71.00;;;;;;5065878;28;20039;-89
2023/01/29 10:03:05;;;;;;;;;;;1.70;71.20;;;;;;5075273;28;20320;-88
2023/01/29 10:05:47;;;;;;;8.00;6.25;;;1.80;70.50;;;;;;5066502;28;19916;-88
2023/01/29 10:08:37;;;;;;;8.35;5.40;;;1.80;70.80;;;;;;5071398;28;20041;-88
2023/01/29 10:11:24;;;;;;;7.70;5.90;;;1.90;70.50;;;;;;5069179;28;20029;-88
2023/01/29 10:14:10;;;;;;;8.38;6.05;;;1.90;70.50;;;;;;5080324;28;20056;-89
2023/01/29 10:16:44;;;;;;;8.20;6.10;;;1.90;70.30;;;;;;5070026;28;20048;-88
2023/01/29 10:19:38;;;;;;;8.50;6.18;;;2.00;70.80;;;;;;5065056;28;20025;-88
2023/01/29 10:22:19;;;;;;;6.53;5.25;;;2.00;69.60;;;;;;5059985;28;20455;-89
2023/01/29 10:24:54;;;;;;;8.60;6.07;;;2.00;69.60;;;;;;5063116;28;20491;-88
2023/01/29 10:27:26;;;;;;;9.38;5.90;;;1.90;69.60;;;;;;5063584;28;20032;-88
2023/01/29 10:29:53;;;;;;;7.15;5.50;;;1.90;69.90;;;;;;5077725;28;20032;-88
2023/01/29 10:32:24;;;;;;;7.80;5.63;;;1.90;69.60;;;;;;5064807;28;20037;-89
2023/01/29 10:35:03;;;;;;;7.97;5.40;;;1.90;69.60;;;;;;5062645;28;20063;-89
2023/01/29 10:37:50;;;;;;;7.00;5.30;;;1.90;69.30;;;;;;5070949;28;20025;-86
2023/01/29 10:40:37;;;;;;;6.38;5.20;;;1.90;69.10;;;;;;5066225;28;20364;-87
2023/01/29 10:43:37;;;;;;;6.95;5.10;;;1.90;69.10;;;;;;5063152;28;20033;-84
2023/01/29 10:46:18;;;;;;;7.90;5.55;;;1.90;69.30;;;;;;5051112;28;20072;-87
2023/01/29 10:49:03;;;;;;;7.47;5.57;;;1.80;68.50;;;;;;5068468;28;20029;-88
2023/01/29 10:51:49;;;;;;;7.15;5.50;;;1.80;68.90;;;;;;5054730;28;20071;-85
2023/01/29 10:54:39;;;;;;;8.65;6.20;;;1.70;69.10;;;;;;5056402;28;20494;-86
2023/01/29 10:57:18;;;;;;;8.00;5.82;;;1.80;69.20;;;;;;5062809;28;20340;-90
2023/01/29 10:59:50;;;;;;;8.65;6.03;;;1.80;69.20;;;;;;5063311;28;20192;-89
2023/01/29 11:02:20;;;;;;;9.23;6.22;;;1.80;69.50;;;;;;5060164;28;20059;-88
2023/01/29 11:04:46;;;;;;;9.00;6.50;;;1.90;70.20;;;;;;5074296;28;20455;-88
2023/01/29 11:07:14;;;;;;;8.57;6.25;;;1.90;69.40;;;;;;5071403;28;20033;-91
2023/01/29 11:09:59;;;;;;;7.93;6.30;;;2.00;69.40;;;;;;5072829;28;20025;-90
2023/01/29 11:12:30;;;;;;;9.10;6.28;;;2.00;69.20;;;;;;5049018;22;20526;-62
2023/01/29 11:15:05;;;;;;;8.75;6.07;;;2.00;69.30;;;;;;5023932;28;20120;-63
2023/01/29 11:17:31;;;;;;;7.75;6.32;;;2.00;69.60;;;;;;5029523;28;20445;-59
2023/01/29 11:19:56;;;;;;;8.98;6.40;;;2.00;69.20;;;;;;5027889;28;20038;-58
2023/01/29 11:22:24;;;;;;;8.23;5.95;;;2.00;68.80;;;;;;5029320;28;20067;-58
2023/01/29 11:25:16;;;;;;;6.47;5.30;;;2.00;68.60;;;;;;5028266;28;20033;-59
2023/01/29 11:27:45;;;;;;;7.22;5.38;;;2.00;68.70;;;;;;5028797;28;20034;-63
2023/01/29 11:30:31;;;;;;;8.43;5.97;;;2.00;68.90;;;;;;5029214;28;20029;-63
2023/01/29 11:33:20;;;;;;;7.75;5.60;;;2.00;68.50;;;;;;5027454;28;20107;-59
2023/01/29 11:35:46;;;;;;;7.57;5.63;;;2.00;68.50;;;;;;5026771;28;20484;-59
2023/01/29 11:38:14;;;;;;;6.95;5.25;;;2.00;68.40;;;;;;5029001;28;20029;-59
2023/01/29 11:40:40;;;;;;;7.50;5.60;;;2.10;68.40;;;;;;5028869;28;20049;-61
2023/01/29 11:43:16;;;;;;;7.78;5.50;;;2.10;68.20;;;;;;5029011;28;20187;-61
2023/01/29 11:45:42;;;;;;;7.75;5.30;;;2.10;68.20;;;;;;5028626;28;20057;-64
2023/01/29 11:48:20;;;;;;;8.52;6.13;;;2.10;68.10;;;;;;5028972;28;20188;-66
2023/01/29 11:50:59;;;;;;;6.97;5.18;;;2.10;67.90;;;;;;5029057;28;20072;-64
2023/01/29 11:53:48;;;;;;;7.32;5.95;;;2.10;67.90;;;;;;5029765;28;20048;-54
2023/01/29 11:56:42;;;;;;;6.82;5.55;;;2.10;67.90;;;;;;5027903;28;20029;-57
2023/01/29 11:59:25;;;;;;;7.35;5.43;;;2.10;68.00;;;;;;5027762;28;20484;-54
2023/01/29 12:01:50;;;;;;;7.28;5.50;;;2.10;67.90;;;;;;5027995;28;20032;-54
2023/01/29 12:04:23;;;;;;;7.15;5.32;;;2.00;68.00;;;;;;5029052;28;20034;-55
2023/01/29 12:06:52;;;;;;;7.28;5.53;;;2.00;67.90;;;;;;5028707;28;20059;-54
2023/01/29 12:09:24;;;;;;;8.38;5.20;;;1.90;67.60;;;;;;5027468;28;20033;-63
2023/01/29 12:11:51;;;;;;;6.82;5.53;;;1.90;67.60;;;;;;5026580;28;20057;-64
2023/01/29 12:14:32;;;;;;;6.82;5.18;;;1.90;67.70;;;;;;5027108;28;20064;-62
2023/01/29 12:17:15;;;;;;;7.10;5.32;;;1.90;67.90;;;;;;5023428;28;20065;-61
2023/01/29 12:19:45;;;;;;;6.47;5.22;;;1.90;68.00;;;;;;5023631;28;20036;-61
2023/01/29 12:22:30;;;;;;;6.25;4.50;;;1.90;68.00;;;;;;5026685;28;20034;-62
2023/01/29 12:25:02;;;;;;;8.38;5.75;;;1.90;68.40;;;;;;5029073;28;20041;-62
2023/01/29 12:27:31;;;;;;;;;;;2.00;68.30;;;;;;5030494;28;20512;-64
2023/01/29 12:30:48;;;;;;;7.30;5.10;;;1.90;67.90;;;;;;5021167;28;20070;-65
2023/01/29 12:33:17;;;;;;;6.90;5.22;;;2.00;68.20;;;;;;5025158;28;20513;-63
2023/01/29 12:35:49;;;;;;;7.80;5.18;;;2.00;68.30;;;;;;5031537;28;20034;-64
2023/01/29 12:38:20;;;;;;;7.22;5.30;;;2.00;68.20;;;;;;5032049;28;20033;-60
2023/01/29 12:40:54;;;;;;;8.55;5.60;;;2.00;68.10;;;;;;5024097;28;20038;-60
2023/01/29 12:43:39;;;;;;;7.38;5.50;;;2.00;68.10;;;;;;5031937;28;20045;-60
2023/01/29 12:46:13;;;;;;;7.38;5.50;;;2.00;68.40;;;;;;5022133;28;20048;-59
2023/01/29 12:48:42;;;;;;;6.72;5.13;;;2.10;68.60;;;;;;5030239;28;20030;-60
2023/01/29 12:51:17;;;;;;;8.77;6.07;;;2.10;68.30;;;;;;5032020;28;20052;-61
2023/01/29 12:53:49;;;;;;;6.43;5.05;;;2.10;68.40;;;;;;5030365;28;20072;-61
2023/01/29 12:56:33;;;;;;;6.82;5.13;;;2.10;68.50;;;;;;5030789;28;20040;-61
2023/01/29 12:59:02;;;;;;;7.40;5.88;;;2.20;68.40;;;;;;5025129;28;20185;-59
2023/01/29 13:01:33;;;;;;;7.18;5.75;;;2.20;68.40;;;;;;5031431;28;20460;-59
2023/01/29 13:04:02;;;;;;;8.57;5.35;;;2.20;68.40;;;;;;5025514;28;20041;-60
2023/01/29 13:06:48;;;;;;;6.13;4.75;;;2.20;68.30;;;;;;5032812;28;20048;-61
2023/01/29 13:09:19;;;;;;;8.20;6.18;;;2.20;68.20;;;;;;5035825;28;20536;-60
2023/01/29 13:12:13;;;;;;;7.50;5.25;;;2.30;68.50;;;;;;5032473;28;20049;-60
2023/01/29 13:15:02;;;;;;;7.43;5.22;;;2.30;68.40;;;;;;5036424;28;20082;-60
2023/01/29 13:17:38;;;;;;;8.88;6.03;;;2.30;68.40;;;;;;5028981;28;20041;-49
2023/01/29 13:20:25;;;;;;;7.68;5.38;;;2.30;69.10;;;;;;5031452;28;20029;-49
2023/01/29 13:22:55;;;;;;;7.72;5.22;;;2.30;68.20;;;;;;5028614;28;20061;-60
2023/01/29 13:25:20;;;;;;;7.10;5.57;;;2.30;68.30;;;;;;5031565;28;20080;-60
2023/01/29 13:27:47;;;;;;;7.47;5.68;;;2.30;68.30;;;;;;5031983;28;20049;-61
2023/01/29 13:30:32;;;;;;;9.07;6.38;;;2.40;68.50;;;;;;5031038;28;20534;-61
2023/01/29 13:33:09;;;;;;;7.57;5.72;;;2.40;68.50;;;;;;5024922;28;20037;-59
2023/01/29 13:35:41;;;;;;;10.07;6.80;;;2.40;68.50;;;;;;5031915;28;20123;-59
2023/01/29 13:38:24;;;;;;;8.05;6.50;;;2.40;68.60;;;;;;5031036;28;20449;-61
2023/01/29 13:40:50;;;;;;;9.00;6.65;;;2.40;68.60;;;;;;5028728;28;20052;-61
2023/01/29 13:43:21;;;;;;;9.20;6.63;;;2.40;68.60;;;;;;5030228;28;20041;-61
2023/01/29 13:45:50;;;;;;;11.10;7.05;;;2.40;68.70;;;;;;5031654;28;20037;-61